Terminal Aerodrome Forecast
Issued by NWS Jackson, KY

Home | Current Version | Previous Version | Text Only | Print | Product List | Glossary On
Versions: 1 2 3 4 5 6 7 8 9 10 11 12 13
000
FTUS43 KJKL 201738
TAFLOZ
TAF
KLOZ 201738Z 2018/2118 VRB05KT P6SM FEW045 SCT080
     FM210600 VRB03KT 4SM BR FEW100 FEW250
     FM211300 VRB04KT P6SM FEW090 SCT200=

USA.gov is the U.S. government's official web portal to all federal, state and local government web resources and services.